Time;durP1;ratioP1;P1;durP2;ratioP2;P2;SDS_P1;SDS_P2;PMS_P1;PMS_P2;Temp;Humidity;BMP_temperature;BMP_pressure;BME280_temperature;BME280_humidity;BME280_pressure;Samples;Min_cycle;Max_cycle;Signal;HPM_P1;HPM_P2
2024/04/08 00:01:17;;;;;;;85.78;15.38;;;;;;;17.48;100.00;97401.34;4988671;28;20084;-67
2024/04/08 00:03:42;;;;;;;85.55;13.35;;;;;;;17.36;100.00;97405.34;4990509;28;20026;-65
2024/04/08 00:06:08;;;;;;;76.35;13.35;;;;;;;17.43;100.00;97398.06;4990025;28;20042;-64
2024/04/08 00:08:33;;;;;;;84.00;14.57;;;;;;;17.35;100.00;97400.13;4988631;28;20488;-64
2024/04/08 00:11:04;;;;;;;76.35;12.90;;;;;;;17.31;100.00;97397.63;4986624;28;20120;-64
2024/04/08 00:13:31;;;;;;;63.50;10.70;;;;;;;17.34;100.00;97395.81;4990536;28;20120;-64
2024/04/08 00:15:59;;;;;;;80.60;13.30;;;;;;;17.36;100.00;97393.94;4992100;28;20336;-64
2024/04/08 00:18:25;;;;;;;66.65;12.23;;;;;;;17.38;100.00;97394.75;4992186;28;20030;-65
2024/04/08 00:21:01;;;;;;;104.20;15.02;;;;;;;17.31;100.00;97395.00;4988633;28;20092;-66
2024/04/08 00:23:26;;;;;;;68.25;10.43;;;;;;;17.33;100.00;97388.84;4990079;28;20029;-64
2024/04/08 00:25:51;;;;;;;79.90;12.18;;;;;;;17.36;100.00;97380.81;4989652;28;20040;-65
2024/04/08 00:28:16;;;;;;;74.50;14.10;;;;;;;17.37;100.00;97383.38;4990607;28;20018;-66
2024/04/08 00:30:42;;;;;;;91.25;11.13;;;;;;;17.38;100.00;97379.84;4987046;28;20127;-63
2024/04/08 00:33:07;;;;;;;76.03;11.20;;;;;;;17.41;100.00;97371.81;4987875;28;20537;-63
2024/04/08 00:35:32;;;;;;;65.85;10.50;;;;;;;17.41;100.00;97363.94;4989594;28;20049;-66
2024/04/08 00:37:58;;;;;;;80.85;8.95;;;;;;;17.59;100.00;97371.97;4993489;28;20029;-67
2024/04/08 00:40:23;;;;;;;91.75;12.48;;;;;;;17.59;100.00;97371.16;4989067;28;20026;-64
2024/04/08 00:42:52;;;;;;;84.60;11.38;;;;;;;17.63;100.00;97368.31;4991189;28;21928;-64
2024/04/08 00:45:18;;;;;;;84.07;10.68;;;;;;;17.63;100.00;97377.97;4987305;28;20026;-68
2024/04/08 00:47:44;;;;;;;78.50;10.32;;;;;;;17.70;100.00;97374.16;4989499;28;20037;-63
2024/04/08 00:50:11;;;;;;;81.82;10.60;;;;;;;17.50;100.00;97369.75;4991537;28;20037;-65
2024/04/08 00:52:37;;;;;;;73.07;10.98;;;;;;;17.52;100.00;97360.88;4986176;28;20023;-66
2024/04/08 00:55:03;;;;;;;50.38;6.45;;;;;;;17.82;100.00;97362.28;4988923;28;20245;-67
2024/04/08 00:57:29;;;;;;;58.03;23.25;;;;;;;17.92;100.00;97360.09;4988629;28;20038;-63
2024/04/08 00:59:55;;;;;;;78.95;9.70;;;;;;;18.23;100.00;97357.91;4988798;28;20025;-67
2024/04/08 01:02:20;;;;;;;71.40;8.43;;;;;;;18.31;100.00;97351.41;4985921;28;20104;-63
2024/04/08 01:04:47;;;;;;;92.13;9.57;;;;;;;18.22;100.00;97349.16;4987186;28;20056;-64
2024/04/08 01:07:12;;;;;;;86.35;10.40;;;;;;;18.07;100.00;97342.78;4986515;28;20038;-64
2024/04/08 01:09:37;;;;;;;84.63;8.77;;;;;;;18.39;100.00;97334.38;4989541;28;20036;-67
2024/04/08 01:12:03;;;;;;;54.78;7.03;;;;;;;18.62;100.00;97338.59;4988034;28;20575;-63
2024/04/08 01:14:29;;;;;;;78.78;8.63;;;;;;;18.66;100.00;97337.53;4987593;28;20048;-66
2024/04/08 01:16:54;;;;;;;46.50;7.30;;;;;;;18.37;100.00;97346.78;4988802;28;20034;-66
2024/04/08 01:19:22;;;;;;;71.03;8.73;;;;;;;18.24;100.00;97344.69;4989255;28;20034;-66
2024/04/08 01:21:48;;;;;;;95.78;10.38;;;;;;;18.15;100.00;97342.47;4986226;28;20660;-63
2024/04/08 01:24:14;;;;;;;75.93;8.77;;;;;;;18.25;100.00;97340.28;4989130;28;20095;-64
2024/04/08 01:26:39;;;;;;;74.85;8.65;;;;;;;18.24;100.00;97331.53;4989020;28;20601;-63
2024/04/08 01:29:05;;;;;;;89.35;9.25;;;;;;;18.36;100.00;97331.91;4989323;28;20028;-65
2024/04/08 01:31:30;;;;;;;58.80;7.90;;;;;;;18.29;100.00;97334.81;4989945;28;20038;-65
2024/04/08 01:33:55;;;;;;;59.70;7.57;;;;;;;18.41;100.00;97337.81;4992655;28;20402;-63
2024/04/08 01:36:21;;;;;;;81.60;8.90;;;;;;;18.37;100.00;97346.78;4991594;28;20707;-63
2024/04/08 01:38:46;;;;;;;66.57;8.25;;;;;;;18.70;100.00;97357.53;4992301;28;20300;-63
2024/04/08 01:41:11;;;;;;;78.18;9.13;;;;;;;18.61;100.00;97365.84;4990104;28;20073;-65
2024/04/08 01:43:36;;;;;;;86.47;9.93;;;;;;;18.19;100.00;97367.75;4992676;28;20465;-63
2024/04/08 01:46:02;;;;;;;57.30;7.80;;;;;;;17.88;100.00;97358.50;4994562;28;20038;-62
2024/04/08 01:48:28;;;;;;;57.85;8.32;;;;;;;17.88;100.00;97374.28;4994725;28;20361;-63
2024/04/08 01:50:53;;;;;;;115.25;11.52;;;;;;;17.73;100.00;97371.41;4991537;28;20471;-64
2024/04/08 01:53:18;;;;;;;71.50;8.88;;;;;;;17.72;100.00;97355.69;4992994;28;20038;-66
2024/04/08 01:55:44;;;;;;;68.95;8.43;;;;;;;17.89;97.55;97354.97;4993047;28;20051;-65
2024/04/08 01:58:10;;;;;;;82.72;8.77;;;;;;;18.15;100.00;97355.66;4991908;28;20065;-67
2024/04/08 02:00:35;;;;;;;55.67;8.45;;;;;;;17.81;100.00;97366.66;4988451;28;20512;-63
2024/04/08 02:03:01;;;;;;;67.85;10.48;;;;;;;17.59;100.00;97363.25;4991767;28;20485;-66
2024/04/08 02:05:26;;;;;;;62.47;10.05;;;;;;;17.43;100.00;97356.88;4991629;28;20655;-63
2024/04/08 02:07:51;;;;;;;83.13;10.32;;;;;;;17.20;100.00;97363.06;4993821;28;20531;-64
2024/04/08 02:10:20;;;;;;;97.70;10.95;;;;;;;17.35;100.00;97382.59;4990147;28;20350;-66
2024/04/08 02:12:47;;;;;;;95.43;12.88;;;;;;;17.42;100.00;97391.09;4992980;28;20026;-63
2024/04/08 02:15:13;;;;;;;72.95;11.30;;;;;;;17.08;100.00;97421.34;4992603;28;20257;-65
2024/04/08 02:17:38;;;;;;;74.47;9.77;;;;;;;16.87;100.00;97440.47;4991186;28;20418;-64
2024/04/08 02:20:06;;;;;;;71.22;11.68;;;;;;;16.75;100.00;97431.28;4992726;28;20518;-63
2024/04/08 02:22:32;;;;;;;69.80;14.73;;;;;;;16.73;100.00;97406.84;4990489;28;20433;-65
2024/04/08 02:24:57;;;;;;;53.70;10.32;;;;;;;17.32;100.00;97443.16;4992009;28;20513;-65
2024/04/08 02:27:23;;;;;;;58.35;11.05;;;;;;;17.28;100.00;97444.19;4990958;28;20053;-66
2024/04/08 02:29:48;;;;;;;102.68;11.77;;;;;;;17.07;100.00;97430.16;4992374;28;20454;-65
2024/04/08 02:32:13;;;;;;;78.13;10.90;;;;;;;17.28;100.00;97446.84;4991333;28;20474;-63
2024/04/08 02:34:40;;;;;;;71.22;10.57;;;;;;;17.60;100.00;97467.50;4989491;28;20336;-64
2024/04/08 02:37:05;;;;;;;76.60;12.43;;;;;;;17.40;100.00;97440.22;4992244;28;20060;-64
2024/04/08 02:39:30;;;;;;;75.05;9.18;;;;;;;17.03;100.00;97403.94;4993889;28;20049;-63
2024/04/08 02:41:56;;;;;;;66.65;8.95;;;;;;;17.29;100.00;97403.84;4991313;28;20029;-66
2024/04/08 02:44:21;;;;;;;94.22;10.25;;;;;;;17.35;100.00;97408.00;4990216;28;20491;-66
2024/04/08 02:46:46;;;;;;;74.35;9.57;;;;;;;17.21;100.00;97412.06;4990191;28;20064;-66
2024/04/08 02:49:12;;;;;;;70.75;8.73;;;;;;;17.17;100.00;97399.97;4988585;28;20061;-63
2024/04/08 02:51:37;;;;;;;84.10;10.15;;;;;;;17.07;100.00;97406.50;4986020;28;20038;-65
2024/04/08 02:54:03;;;;;;;74.13;9.85;;;;;;;17.07;100.00;97394.19;4989246;28;20037;-64
2024/04/08 02:56:29;;;;;;;55.85;8.25;;;;;;;17.09;100.00;97407.28;4991415;28;20373;-63
2024/04/08 02:58:54;;;;;;;95.10;14.43;;;;;;;16.74;100.00;97424.31;4990473;28;20565;-63
2024/04/08 03:01:20;;;;;;;76.47;13.13;;;;;;;16.45;100.00;97407.00;4989245;28;20030;-64
2024/04/08 03:03:45;;;;;;;101.28;15.57;;;;;;;16.26;100.00;97397.19;4989608;28;20577;-66
2024/04/08 03:06:12;;;;;;;99.63;14.88;;;;;;;16.27;100.00;97399.75;4990496;28;20046;-66
2024/04/08 03:08:38;;;;;;;71.28;12.93;;;;;;;16.33;100.00;97414.41;4993725;28;20026;-67
2024/04/08 03:11:04;;;;;;;69.78;12.00;;;;;;;16.34;100.00;97410.91;4990841;28;20561;-63
2024/04/08 03:13:30;;;;;;;90.50;11.60;;;;;;;16.53;100.00;97411.06;4992670;28;20113;-67
2024/04/08 03:15:56;;;;;;;86.63;11.85;;;;;;;16.67;100.00;97412.34;4989894;28;20042;-63
2024/04/08 03:18:23;;;;;;;74.22;12.05;;;;;;;16.43;100.00;97391.31;4989783;28;20640;-66
2024/04/08 03:20:59;;;;;;;121.63;17.70;;;;;;;16.23;100.00;97394.69;4988064;28;20084;-64
2024/04/08 03:23:25;;;;;;;80.03;12.30;;;;;;;16.33;100.00;97400.47;4990377;28;20066;-63
2024/04/08 03:26:09;;;;;;;96.03;13.18;;;;;;;16.48;100.00;97414.78;4987096;28;20149;-67
2024/04/08 03:28:34;;;;;;;62.53;10.73;;;;;;;16.45;100.00;97407.00;4990024;28;20519;-63
2024/04/08 03:31:07;;;;;;;91.75;12.68;;;;;;;16.31;100.00;97403.13;4987909;28;20030;-63
2024/04/08 03:33:33;;;;;;;91.60;12.80;;;;;;;16.27;100.00;97401.53;4988188;28;20164;-67
2024/04/08 03:36:00;;;;;;;52.90;10.73;;;;;;;16.37;100.00;97405.53;4986800;28;20045;-66
2024/04/08 03:38:26;;;;;;;66.78;12.48;;;;;;;16.34;100.00;97407.41;4990320;28;20406;-65
2024/04/08 03:41:02;;;;;;;102.40;13.40;;;;;;;16.37;100.00;97409.94;4985948;28;20558;-67
2024/04/08 03:43:28;;;;;;;69.45;11.43;;;;;;;16.37;100.00;97412.56;4990613;28;20593;-66
2024/04/08 03:45:53;;;;;;;97.55;12.57;;;;;;;16.32;100.00;97411.84;4986349;28;20034;-65
2024/04/08 03:48:19;;;;;;;72.25;10.35;;;;;;;16.30;100.00;97416.31;4986276;28;20030;-66
2024/04/08 03:50:44;;;;;;;108.57;13.05;;;;;;;16.22;100.00;97417.41;4987613;28;20560;-66
2024/04/08 03:53:10;;;;;;;80.22;9.40;;;;;;;15.91;100.00;97430.72;4987768;28;20603;-63
2024/04/08 03:55:35;;;;;;;61.80;7.72;;;;;;;15.62;100.00;97422.91;4988573;28;20049;-66
2024/04/08 03:58:00;;;;;;;67.75;7.82;;;;;;;15.62;100.00;97422.91;4989853;28;20469;-65
2024/04/08 04:00:26;;;;;;;78.78;8.30;;;;;;;15.57;100.00;97411.72;4987469;28;20875;-69
2024/04/08 04:02:51;;;;;;;96.03;9.90;;;;;;;15.64;100.00;97422.88;4989829;28;20026;-67
2024/04/08 04:05:20;;;;;;;92.85;9.68;;;;;;;15.77;100.00;97421.53;4986561;28;20035;-63
2024/04/08 04:07:45;;;;;;;81.78;9.25;;;;;;;15.73;100.00;97420.81;4988431;28;20168;-65
2024/04/08 04:10:11;;;;;;;84.53;9.55;;;;;;;15.80;100.00;97416.22;4990312;28;20037;-62
2024/04/08 04:12:38;;;;;;;75.40;8.40;;;;;;;15.61;100.00;97406.34;4989092;28;20037;-65
2024/04/08 04:15:09;;;;;;;76.63;8.88;;;;;;;15.61;100.00;97408.09;4987018;28;20018;-66
2024/04/08 04:17:34;;;;;;;59.05;7.57;;;;;;;15.70;100.00;97407.78;4989710;28;20145;-67
2024/04/08 04:20:00;;;;;;;50.25;6.72;;;;;;;15.61;100.00;97410.72;4987797;28;20651;-68
2024/04/08 04:22:25;;;;;;;73.75;8.65;;;;;;;15.55;100.00;97406.53;4985848;28;20437;-68
2024/04/08 04:24:51;;;;;;;93.68;10.65;;;;;;;15.45;100.00;97421.69;4991695;28;20062;-67
2024/04/08 04:27:16;;;;;;;73.95;8.50;;;;;;;15.37;100.00;97413.25;4988027;28;20141;-67
2024/04/08 04:29:41;;;;;;;85.63;9.27;;;;;;;15.51;100.00;97419.81;4990635;28;20041;-65
2024/04/08 04:32:07;;;;;;;75.93;8.52;;;;;;;15.39;100.00;97424.53;4989734;28;20045;-67
2024/04/08 04:34:33;;;;;;;52.35;8.13;;;;;;;15.51;100.00;97422.44;4990612;28;20062;-66
2024/04/08 04:36:58;;;;;;;89.22;9.80;;;;;;;15.33;100.00;97427.34;4987464;28;20031;-65
2024/04/08 04:39:23;;;;;;;79.28;11.90;;;;;;;15.61;100.00;97426.44;4988565;28;20525;-67
2024/04/08 04:41:49;;;;;;;74.90;8.70;;;;;;;15.46;100.00;97428.69;4986954;28;20245;-65
2024/04/08 04:44:15;;;;;;;59.38;8.18;;;;;;;15.34;100.00;97434.31;4990330;28;20059;-63
2024/04/08 04:46:40;;;;;;;103.28;10.18;;;;;;;15.38;100.00;97428.06;4987429;28;20152;-64
2024/04/08 04:49:06;;;;;;;64.50;8.63;;;;;;;15.48;100.00;97431.25;4989106;28;20370;-64
2024/04/08 04:51:31;;;;;;;69.00;7.78;;;;;;;15.23;100.00;97434.63;4987961;28;20733;-66
2024/04/08 04:53:57;;;;;;;103.35;9.80;;;;;;;15.42;100.00;97437.53;4987908;28;20025;-64
2024/04/08 04:56:22;;;;;;;79.05;9.05;;;;;;;15.37;100.00;97436.84;4992606;28;20274;-67
2024/04/08 04:58:47;;;;;;;100.00;10.35;;;;;;;15.52;100.00;97440.72;4987942;28;20505;-65
2024/04/08 05:01:13;;;;;;;83.43;9.55;;;;;;;15.70;100.00;97436.63;4988538;28;20070;-64
2024/04/08 05:03:38;;;;;;;82.10;9.27;;;;;;;15.35;100.00;97442.13;4989826;28;20133;-63
2024/04/08 05:06:04;;;;;;;70.05;8.65;;;;;;;15.53;100.00;97445.06;4989764;28;20034;-64
2024/04/08 05:08:29;;;;;;;77.70;9.48;;;;;;;15.59;100.00;97449.25;4991972;28;20037;-67
2024/04/08 05:10:55;;;;;;;119.85;11.80;;;;;;;15.68;100.00;97448.94;4989841;28;20034;-64
2024/04/08 05:13:20;;;;;;;69.03;8.40;;;;;;;15.56;100.00;97449.34;4992753;28;20289;-67
2024/04/08 05:16:02;;;;;;;116.85;11.80;;;;;;;15.45;100.00;97447.06;4990720;28;20573;-66
2024/04/08 05:18:28;;;;;;;66.45;8.73;;;;;;;15.61;100.00;97461.41;4994189;28;20121;-64
2024/04/08 05:20:55;;;;;;;130.35;11.93;;;;;;;15.53;100.00;97457.28;4991303;28;20576;-69
2024/04/08 05:23:21;;;;;;;88.00;10.05;;;;;;;15.74;100.00;97463.63;4992611;28;20211;-65
2024/04/08 05:25:47;;;;;;;99.97;10.63;;;;;;;15.84;100.00;97459.78;4987998;28;20045;-66
2024/04/08 05:28:13;;;;;;;100.57;9.63;;;;;;;15.93;100.00;97461.25;4990823;28;20132;-67
2024/04/08 05:30:40;;;;;;;87.25;8.98;;;;;;;16.13;100.00;97471.09;4992185;28;20237;-66
2024/04/08 05:33:05;;;;;;;78.05;9.10;;;;;;;16.28;100.00;97474.06;4988726;28;20042;-65
2024/04/08 05:35:30;;;;;;;69.97;8.93;;;;;;;16.78;100.00;97473.16;4993042;28;20093;-64
2024/04/08 05:37:56;;;;;;;88.85;9.55;;;;;;;16.58;100.00;97466.03;4992206;28;20045;-63
2024/04/08 05:40:21;;;;;;;92.40;11.57;;;;;;;16.84;100.00;97464.22;4991813;28;20092;-66
2024/04/08 05:42:47;;;;;;;93.63;11.73;;;;;;;16.94;100.00;97462.09;4991554;28;20112;-66
2024/04/08 05:45:12;;;;;;;75.80;9.95;;;;;;;16.78;100.00;97461.81;4992666;28;20041;-65
2024/04/08 05:47:38;;;;;;;80.68;15.48;;;;;;;16.98;100.00;97468.94;4992239;28;20524;-68
2024/04/08 05:50:04;;;;;;;87.03;12.73;;;;;;;17.27;100.00;97474.91;4994825;28;20034;-66
2024/04/08 05:52:31;;;;;;;75.55;12.10;;;;;;;17.25;100.00;97474.09;4992366;28;20026;-67
2024/04/08 05:54:56;;;;;;;99.05;14.00;;;;;;;17.44;100.00;97461.09;4990748;28;20080;-66
2024/04/08 05:57:21;;;;;;;76.53;11.82;;;;;;;17.76;100.00;97471.22;4991481;28;20121;-68
2024/04/08 05:59:47;;;;;;;78.65;11.32;;;;;;;16.84;100.00;97469.47;4991135;28;20402;-68
2024/04/08 06:02:12;;;;;;;72.80;9.13;;;;;;;17.01;100.00;97474.09;4990356;28;20034;-67
2024/04/08 06:04:38;;;;;;;72.50;10.50;;;;;;;17.42;100.00;97462.06;4989452;28;20017;-64
2024/04/08 06:07:03;;;;;;;113.10;11.82;;;;;;;16.81;100.00;97460.84;4991539;28;20860;-65
2024/04/08 06:09:29;;;;;;;75.38;12.20;;;;;;;17.38;100.00;97466.59;4992364;28;20060;-65
2024/04/08 06:11:55;;;;;;;91.75;14.50;;;;;;;17.82;100.00;97473.59;4990084;28;20461;-67
2024/04/08 06:14:20;;;;;;;94.00;11.95;;;;;;;18.13;100.00;97468.84;4992432;28;20196;-65
2024/04/08 06:16:45;;;;;;;67.72;12.45;;;;;;;18.42;100.00;97486.94;4991010;28;20069;-68
2024/04/08 06:19:11;;;;;;;65.28;12.40;;;;;;;18.48;100.00;97486.66;4988792;28;20108;-66
2024/04/08 06:21:36;;;;;;;69.13;11.50;;;;;;;18.77;100.00;97481.06;4993049;28;20243;-64
2024/04/08 06:24:02;;;;;;;94.95;13.07;;;;;;;18.94;100.00;97483.78;4992060;28;20072;-64
2024/04/08 06:26:27;;;;;;;59.72;11.70;;;;;;;19.17;100.00;97486.28;4991694;28;20318;-64
2024/04/08 06:28:52;;;;;;;91.55;11.75;;;;;;;19.54;100.00;97484.56;4990243;28;20042;-63
2024/04/08 06:31:18;;;;;;;63.95;9.48;;;;;;;19.87;100.00;97475.06;4989740;28;21046;-64
2024/04/08 06:33:43;;;;;;;81.97;9.13;;;;;;;20.45;100.00;97482.78;4993589;28;20738;-66
2024/04/08 06:36:09;;;;;;;58.90;8.30;;;;;;;20.92;100.00;97478.59;4989835;28;20076;-67
2024/04/08 06:38:34;;;;;;;56.67;7.97;;;;;;;21.87;100.00;97481.34;4991258;28;20021;-65
2024/04/08 06:41:00;;;;;;;100.18;10.65;;;;;;;22.10;90.59;97480.00;4991918;28;20128;-67
2024/04/08 06:43:25;;;;;;;57.55;8.45;;;;;;;22.73;82.86;97489.56;4991258;28;20030;-67
2024/04/08 06:45:58;;;;;;;86.50;10.75;;;;;;;23.71;68.06;97475.50;4988780;28;20053;-66
2024/04/08 06:48:23;;;;;;;63.58;9.40;;;;;;;23.90;63.77;97467.19;4991244;28;20038;-64
2024/04/08 06:50:49;;;;;;;98.65;11.43;;;;;;;24.26;62.84;97472.81;4990495;28;20127;-64
2024/04/08 06:53:14;;;;;;;62.80;8.88;;;;;;;24.49;58.30;97465.06;4989845;28;20042;-65
2024/04/08 06:55:40;;;;;;;55.38;8.88;;;;;;;25.24;56.34;97464.38;4990980;28;20043;-67
2024/04/08 06:58:07;;;;;;;83.13;9.85;;;;;;;25.90;54.16;97469.34;4989833;28;20048;-65
2024/04/08 07:00:32;;;;;;;64.22;8.98;;;;;;;26.73;50.17;97474.69;4988806;28;20137;-65
2024/04/08 07:02:57;;;;;;;74.85;11.18;;;;;;;26.23;51.53;97472.22;4990232;28;20030;-67
2024/04/08 07:05:23;;;;;;;44.10;8.93;;;;;;;28.48;45.84;97475.81;4992007;28;20501;-66
2024/04/08 07:07:48;;;;;;;68.63;9.80;;;;;;;28.92;43.56;97464.97;4992220;28;20393;-64
2024/04/08 07:10:13;;;;;;;68.25;10.60;;;;;;;28.73;44.13;97469.22;4991588;28;20491;-64
2024/04/08 07:12:39;;;;;;;43.40;8.45;;;;;;;30.06;41.05;97468.28;4991681;28;20713;-65
2024/04/08 07:15:04;;;;;;;61.78;10.57;;;;;;;29.74;41.08;97471.13;4990930;28;20069;-65
2024/04/08 07:17:30;;;;;;;45.25;9.70;;;;;;;29.13;43.39;97478.25;4988473;28;20117;-66
2024/04/08 07:19:57;;;;;;;56.30;10.40;;;;;;;30.06;43.51;97470.97;4991119;28;20480;-68
2024/04/08 07:22:22;;;;;;;54.17;10.15;;;;;;;29.91;44.13;97471.38;4988118;28;20936;-67
2024/04/08 07:24:47;;;;;;;47.03;10.30;;;;;;;30.93;41.16;97470.97;4987531;28;20022;-67
2024/04/08 07:27:13;;;;;;;40.25;9.10;;;;;;;31.00;39.42;97480.13;4988871;28;20661;-65
2024/04/08 07:29:38;;;;;;;54.50;11.05;;;;;;;31.25;40.78;97469.66;4984427;28;20033;-66
2024/04/08 07:32:04;;;;;;;60.53;10.40;;;;;;;31.23;38.53;97473.50;4989208;28;20034;-64
2024/04/08 07:34:29;;;;;;;31.38;7.97;;;;;;;30.74;38.67;97475.41;4990121;28;20053;-64
2024/04/08 07:36:55;;;;;;;52.58;10.07;;;;;;;30.80;39.67;97471.28;4988873;28;20038;-67
2024/04/08 07:39:20;;;;;;;41.47;9.15;;;;;;;31.27;39.08;97470.38;4990352;28;20071;-65
2024/04/08 07:41:45;;;;;;;44.50;9.43;;;;;;;29.57;40.74;97461.06;4987090;28;20044;-66
2024/04/08 07:44:11;;;;;;;43.05;9.27;;;;;;;30.55;39.46;97465.56;4992012;28;20416;-64
2024/04/08 07:46:37;;;;;;;49.22;10.55;;;;;;;29.80;40.48;97476.88;4989037;28;20080;-65
2024/04/08 07:49:02;;;;;;;55.40;19.15;;;;;;;30.18;39.92;97483.28;4986664;28;20142;-65
2024/04/08 07:51:28;;;;;;;42.40;12.50;;;;;;;31.61;38.84;97468.09;4986810;28;20441;-67
2024/04/08 07:53:53;;;;;;;44.45;9.77;;;;;;;32.75;35.87;97467.50;4989982;28;20462;-66
2024/04/08 07:56:19;;;;;;;42.17;9.02;;;;;;;32.85;34.65;97468.22;4988171;28;20042;-66
2024/04/08 07:58:45;;;;;;;40.05;8.70;;;;;;;35.29;32.38;97464.53;4991256;28;20022;-66
2024/04/08 08:01:10;;;;;;;38.60;8.23;;;;;;;32.09;34.20;97463.31;4987674;28;20324;-68
2024/04/08 08:03:36;;;;;;;27.35;7.13;;;;;;;34.25;32.38;97460.72;4989895;28;20033;-67
2024/04/08 08:06:02;;;;;;;48.58;8.70;;;;;;;36.08;31.87;97457.25;4989643;28;20066;-65
2024/04/08 08:08:28;;;;;;;40.10;8.35;;;;;;;36.29;30.96;97451.16;4987323;28;20060;-68
2024/04/08 08:10:57;;;;;;;42.28;8.32;;;;;;;36.21;29.98;97438.56;4987646;28;20149;-65
2024/04/08 08:13:22;;;;;;;43.92;7.75;;;;;;;36.87;29.37;97444.31;4990392;28;20101;-68
2024/04/08 08:15:57;;;;;;;48.58;9.05;;;;;;;36.44;29.74;97444.94;4990095;28;20050;-66
2024/04/08 08:18:23;;;;;;;37.40;7.35;;;;;;;36.03;30.16;97448.84;4989121;28;20022;-66
2024/04/08 08:20:48;;;;;;;53.80;8.93;;;;;;;35.90;30.61;97450.31;4987259;28;20045;-67
2024/04/08 08:23:15;;;;;;;55.10;9.25;;;;;;;34.77;31.50;97453.22;4985138;28;20017;-66
2024/04/08 08:25:40;;;;;;;36.67;7.40;;;;;;;32.19;34.38;97447.97;4988284;28;20049;-66
2024/04/08 08:28:06;;;;;;;43.90;8.70;;;;;;;32.20;35.19;97448.78;4988486;28;20398;-64
2024/04/08 08:30:35;;;;;;;29.13;7.47;;;;;;;31.40;37.68;97450.41;4989321;28;20033;-65
2024/04/08 08:33:00;;;;;;;58.80;9.38;;;;;;;32.59;37.56;97447.56;4988785;28;20034;-66
2024/04/08 08:35:26;;;;;;;41.60;8.75;;;;;;;31.12;38.77;97450.38;4988371;28;20038;-67
2024/04/08 08:37:51;;;;;;;49.50;9.30;;;;;;;31.37;35.94;97458.75;4991705;28;20037;-66
2024/04/08 08:40:17;;;;;;;66.75;10.25;;;;;;;30.70;35.16;97463.25;4985746;28;20025;-65
2024/04/08 08:42:44;;;;;;;54.67;9.48;;;;;;;29.34;37.30;97458.59;4985310;28;20161;-66
2024/04/08 08:45:11;;;;;;;76.57;11.00;;;;;;;29.71;35.89;97447.28;4987674;28;20528;-67
2024/04/08 08:47:38;;;;;;;42.20;8.85;;;;;;;29.56;40.00;97444.16;4988812;28;20162;-66
2024/04/08 08:50:05;;;;;;;48.35;8.82;;;;;;;29.62;37.95;97448.13;4988552;28;20032;-67
2024/04/08 08:52:31;;;;;;;49.90;9.30;;;;;;;29.88;38.14;97447.56;4989297;28;20034;-66
2024/04/08 08:54:56;;;;;;;56.30;10.18;;;;;;;31.44;38.63;97455.31;4990314;28;20033;-65
2024/04/08 08:57:24;;;;;;;46.38;8.55;;;;;;;31.83;36.04;97448.81;4989592;28;20037;-66
2024/04/08 08:59:50;;;;;;;55.55;9.45;;;;;;;34.30;33.49;97449.38;4986040;28;20411;-64
2024/04/08 09:02:17;;;;;;;48.92;8.20;;;;;;;35.84;30.79;97448.31;4986142;28;20141;-65
2024/04/08 09:04:42;;;;;;;45.28;7.97;;;;;;;37.02;27.95;97447.03;4990458;28;20026;-66
2024/04/08 09:07:08;;;;;;;63.20;9.15;;;;;;;35.86;27.95;97440.88;4985828;28;20030;-65
2024/04/08 09:09:34;;;;;;;36.35;7.43;;;;;;;38.33;26.18;97439.00;4989556;28;20026;-65
2024/04/08 09:12:00;;;;;;;55.47;8.55;;;;;;;37.59;26.41;97441.88;4986052;28;20362;-66
2024/04/08 09:14:28;;;;;;;37.80;7.60;;;;;;;36.65;27.18;97436.13;4987141;28;20057;-67
2024/04/08 09:17:06;;;;;;;31.23;7.05;;;;;;;38.42;25.73;97439.72;4987855;28;20038;-64
2024/04/08 09:19:32;;;;;;;39.72;7.60;;;;;;;38.96;24.87;97429.16;4987991;28;20464;-70
2024/04/08 09:21:57;;;;;;;51.00;8.75;;;;;;;37.86;25.38;97441.31;4984304;28;20044;-67
2024/04/08 09:24:23;;;;;;;34.97;7.75;;;;;;;35.97;27.28;97432.28;4988165;28;20462;-64
2024/04/08 09:26:48;;;;;;;44.10;7.63;;;;;;;33.09;30.28;97429.81;4987593;28;20054;-65
2024/04/08 09:29:13;;;;;;;49.35;8.43;;;;;;;34.73;29.38;97424.88;4988571;28;20041;-67
2024/04/08 09:31:39;;;;;;;47.35;8.77;;;;;;;34.43;28.90;97411.91;4984751;28;20041;-67
2024/04/08 09:34:04;;;;;;;70.38;10.05;;;;;;;36.67;27.25;97420.53;4987376;28;20777;-64
2024/04/08 09:36:31;;;;;;;45.95;8.05;;;;;;;37.69;25.66;97409.03;4985137;28;20153;-65
2024/04/08 09:39:01;;;;;;;49.97;8.63;;;;;;;35.54;28.22;97405.72;4989811;28;20026;-67
2024/04/08 09:41:27;;;;;;;40.10;7.75;;;;;;;33.57;30.16;97402.34;4986446;28;20034;-66
2024/04/08 09:43:55;;;;;;;45.28;8.00;;;;;;;33.31;30.58;97395.19;4987693;28;20022;-66
2024/04/08 09:46:21;;;;;;;57.28;9.55;;;;;;;35.66;28.01;97400.78;4989005;28;20470;-68
2024/04/08 09:48:46;;;;;;;57.45;8.82;;;;;;;35.78;27.18;97395.78;4985154;28;20510;-66
2024/04/08 09:51:13;;;;;;;59.35;9.23;;;;;;;38.96;23.92;97395.75;4983299;28;20041;-65
2024/04/08 09:53:38;;;;;;;44.33;7.97;;;;;;;39.93;23.32;97389.28;4987678;28;20034;-68
2024/04/08 09:56:11;;;;;;;61.90;9.30;;;;;;;39.50;23.09;97383.16;4989931;28;20411;-68
2024/04/08 09:58:39;;;;;;;38.05;7.45;;;;;;;38.14;23.86;97380.81;4990532;28;20033;-68
2024/04/08 10:01:05;;;;;;;128.23;14.55;;;;;;;37.31;24.74;97384.84;4988232;28;20037;-65
2024/04/08 10:03:50;;;;;;;52.08;8.50;;;;;;;34.54;27.54;97381.00;4990660;28;20032;-65
2024/04/08 10:06:17;;;;;;;41.65;7.93;;;;;;;35.92;26.23;97377.91;4989226;28;20543;-64
2024/04/08 10:08:44;;;;;;;62.15;9.48;;;;;;;37.31;24.86;97369.41;4992202;28;20165;-66
2024/04/08 10:11:10;;;;;;;64.95;9.80;;;;;;;37.73;24.51;97372.34;4989869;28;20542;-67
2024/04/08 10:13:49;;;;;;;43.25;8.27;;;;;;;38.16;24.48;97373.34;4993922;28;20081;-68
2024/04/08 10:16:15;;;;;;;74.78;10.57;;;;;;;38.14;23.95;97367.25;4991635;28;20069;-67
2024/04/08 10:18:51;;;;;;;48.53;8.00;;;;;;;36.07;24.69;97374.41;4991227;28;20443;-68
2024/04/08 10:21:18;;;;;;;68.95;9.50;;;;;;;36.26;24.26;97364.94;4987939;28;20053;-64
2024/04/08 10:23:43;;;;;;;50.42;8.10;;;;;;;35.38;25.37;97371.56;4989400;28;20041;-66
2024/04/08 10:26:09;;;;;;;74.27;10.10;;;;;;;37.41;23.73;97360.97;4989319;28;20030;-66
2024/04/08 10:28:39;;;;;;;50.05;8.40;;;;;;;37.40;23.46;97350.31;4990035;28;20281;-67
2024/04/08 10:31:05;;;;;;;57.67;8.85;;;;;;;37.48;23.75;97353.72;4987625;28;20095;-66
2024/04/08 10:33:30;;;;;;;44.10;7.88;;;;;;;37.57;23.84;97350.88;4991408;28;20034;-67
2024/04/08 10:35:56;;;;;;;51.85;8.55;;;;;;;36.65;23.75;97354.88;4987916;28;20043;-64
2024/04/08 10:38:21;;;;;;;49.65;8.15;;;;;;;36.92;24.22;97346.25;4987686;28;20026;-67
2024/04/08 10:40:46;;;;;;;59.72;8.98;;;;;;;37.18;24.49;97345.72;4991313;28;20054;-65
2024/04/08 10:43:12;;;;;;;70.18;10.57;;;;;;;37.14;24.99;97339.00;4990692;28;20029;-65
2024/04/08 10:45:38;;;;;;;41.13;7.45;;;;;;;36.21;25.72;97334.88;4988375;28;20371;-64
2024/04/08 10:48:14;;;;;;;63.17;9.35;;;;;;;36.08;26.03;97330.91;4988882;28;20463;-67
2024/04/08 10:50:39;;;;;;;51.83;9.50;;;;;;;37.75;24.00;97334.19;4987846;28;20037;-66
2024/04/08 10:53:05;;;;;;;56.85;8.60;;;;;;;37.00;25.58;97335.28;4988158;28;20018;-66
2024/04/08 10:55:30;;;;;;;37.85;7.57;;;;;;;35.89;25.63;97329.59;4991837;28;20685;-65
2024/04/08 10:57:56;;;;;;;46.53;8.20;;;;;;;36.11;26.01;97326.16;4987986;28;20572;-66
2024/04/08 11:00:21;;;;;;;57.78;8.90;;;;;;;35.30;26.89;97326.50;4987190;28;20551;-64
2024/04/08 11:02:46;;;;;;;49.65;8.30;;;;;;;34.60;26.76;97314.69;4990322;28;20636;-64
2024/04/08 11:05:12;;;;;;;77.50;10.18;;;;;;;34.12;26.71;97320.94;4990023;28;20424;-68
2024/04/08 11:07:38;;;;;;;41.70;7.53;;;;;;;35.82;25.77;97318.66;4988663;28;20559;-65
2024/04/08 11:10:05;;;;;;;52.45;8.85;;;;;;;36.53;24.75;97310.31;4989261;28;20025;-65
2024/04/08 11:12:30;;;;;;;47.28;7.93;;;;;;;36.71;24.00;97309.94;4988489;28;20045;-64